sensor_id;sensor_type;location;lat;lon;timestamp;P1;durP1;ratioP1;P2;durP2;ratioP2
13483;SDS011;6814;57.786;12.080;2022-07-23T00:02:12;5.43;;;2.67;;
13483;SDS011;6814;57.786;12.080;2022-07-23T00:04:40;5.37;;;3.30;;
13483;SDS011;6814;57.786;12.080;2022-07-23T00:07:07;5.30;;;2.67;;
13483;SDS011;6814;57.786;12.080;2022-07-23T00:09:33;5.07;;;2.60;;
13483;SDS011;6814;57.786;12.080;2022-07-23T00:11:59;5.87;;;2.50;;
13483;SDS011;6814;57.786;12.080;2022-07-23T00:14:26;10.77;;;2.70;;
13483;SDS011;6814;57.786;12.080;2022-07-23T00:16:52;4.63;;;1.97;;
13483;SDS011;6814;57.786;12.080;2022-07-23T00:19:19;6.03;;;2.30;;
13483;SDS011;6814;57.786;12.080;2022-07-23T00:21:46;3.47;;;2.33;;
13483;SDS011;6814;57.786;12.080;2022-07-23T00:24:13;4.23;;;1.93;;
13483;SDS011;6814;57.786;12.080;2022-07-23T00:26:39;3.43;;;1.93;;
13483;SDS011;6814;57.786;12.080;2022-07-23T00:29:06;3.87;;;2.10;;
13483;SDS011;6814;57.786;12.080;2022-07-23T00:31:32;3.53;;;1.73;;
13483;SDS011;6814;57.786;12.080;2022-07-23T00:33:58;3.17;;;1.87;;
13483;SDS011;6814;57.786;12.080;2022-07-23T00:36:26;1.73;;;1.30;;
13483;SDS011;6814;57.786;12.080;2022-07-23T00:38:54;1.77;;;1.50;;
13483;SDS011;6814;57.786;12.080;2022-07-23T00:41:21;1.50;;;1.27;;
13483;SDS011;6814;57.786;12.080;2022-07-23T00:43:47;1.90;;;1.30;;
13483;SDS011;6814;57.786;12.080;2022-07-23T00:46:18;1.57;;;1.20;;
13483;SDS011;6814;57.786;12.080;2022-07-23T00:48:44;1.27;;;1.17;;
13483;SDS011;6814;57.786;12.080;2022-07-23T00:51:11;1.13;;;1.10;;
13483;SDS011;6814;57.786;12.080;2022-07-23T00:53:37;1.83;;;1.30;;
13483;SDS011;6814;57.786;12.080;2022-07-23T00:56:05;2.03;;;1.00;;
13483;SDS011;6814;57.786;12.080;2022-07-23T00:58:32;1.63;;;1.20;;
13483;SDS011;6814;57.786;12.080;2022-07-23T01:01:00;0.90;;;0.90;;
13483;SDS011;6814;57.786;12.080;2022-07-23T01:03:26;1.33;;;0.73;;
13483;SDS011;6814;57.786;12.080;2022-07-23T01:05:53;0.93;;;0.73;;
13483;SDS011;6814;57.786;12.080;2022-07-23T01:08:19;2.20;;;0.83;;
13483;SDS011;6814;57.786;12.080;2022-07-23T01:10:45;1.33;;;0.80;;
13483;SDS011;6814;57.786;12.080;2022-07-23T01:13:14;1.63;;;0.60;;
13483;SDS011;6814;57.786;12.080;2022-07-23T01:15:40;2.30;;;0.67;;
13483;SDS011;6814;57.786;12.080;2022-07-23T01:18:07;1.13;;;0.93;;
13483;SDS011;6814;57.786;12.080;2022-07-23T01:20:34;0.63;;;0.50;;
13483;SDS011;6814;57.786;12.080;2022-07-23T01:23:02;1.23;;;0.70;;
13483;SDS011;6814;57.786;12.080;2022-07-23T01:25:29;0.60;;;0.60;;
13483;SDS011;6814;57.786;12.080;2022-07-23T01:27:55;1.80;;;0.80;;
13483;SDS011;6814;57.786;12.080;2022-07-23T01:30:21;0.70;;;0.60;;
13483;SDS011;6814;57.786;12.080;2022-07-23T01:32:48;0.87;;;0.60;;
13483;SDS011;6814;57.786;12.080;2022-07-23T01:35:14;0.60;;;0.60;;
13483;SDS011;6814;57.786;12.080;2022-07-23T01:37:40;1.00;;;0.80;;
13483;SDS011;6814;57.786;12.080;2022-07-23T01:40:09;0.60;;;0.60;;
13483;SDS011;6814;57.786;12.080;2022-07-23T01:42:35;0.40;;;0.40;;
13483;SDS011;6814;57.786;12.080;2022-07-23T01:45:02;0.63;;;0.47;;
13483;SDS011;6814;57.786;12.080;2022-07-23T01:47:29;0.67;;;0.67;;
13483;SDS011;6814;57.786;12.080;2022-07-23T01:49:56;1.00;;;0.50;;
13483;SDS011;6814;57.786;12.080;2022-07-23T01:52:22;0.80;;;0.80;;
13483;SDS011;6814;57.786;12.080;2022-07-23T01:54:48;0.60;;;0.60;;
13483;SDS011;6814;57.786;12.080;2022-07-23T01:57:16;1.03;;;0.73;;
13483;SDS011;6814;57.786;12.080;2022-07-23T01:59:42;0.90;;;0.80;;
13483;SDS011;6814;57.786;12.080;2022-07-23T02:02:09;0.70;;;0.70;;
13483;SDS011;6814;57.786;12.080;2022-07-23T02:04:35;0.93;;;0.80;;
13483;SDS011;6814;57.786;12.080;2022-07-23T02:07:02;1.87;;;0.73;;
13483;SDS011;6814;57.786;12.080;2022-07-23T02:09:28;1.20;;;1.10;;
13483;SDS011;6814;57.786;12.080;2022-07-23T02:11:55;1.10;;;1.03;;
13483;SDS011;6814;57.786;12.080;2022-07-23T02:14:23;1.10;;;1.00;;
13483;SDS011;6814;57.786;12.080;2022-07-23T02:16:49;1.27;;;1.10;;
13483;SDS011;6814;57.786;12.080;2022-07-23T02:19:16;1.17;;;1.13;;
13483;SDS011;6814;57.786;12.080;2022-07-23T02:21:42;2.03;;;1.30;;
13483;SDS011;6814;57.786;12.080;2022-07-23T02:24:08;1.40;;;1.30;;
13483;SDS011;6814;57.786;12.080;2022-07-23T02:26:35;1.40;;;1.30;;
13483;SDS011;6814;57.786;12.080;2022-07-23T02:29:02;2.33;;;1.50;;
13483;SDS011;6814;57.786;12.080;2022-07-23T02:31:30;1.33;;;1.27;;
13483;SDS011;6814;57.786;12.080;2022-07-23T02:33:56;1.50;;;1.40;;
13483;SDS011;6814;57.786;12.080;2022-07-23T02:36:23;1.33;;;1.33;;
13483;SDS011;6814;57.786;12.080;2022-07-23T02:38:49;1.53;;;1.43;;
13483;SDS011;6814;57.786;12.080;2022-07-23T02:41:16;1.67;;;1.57;;
13483;SDS011;6814;57.786;12.080;2022-07-23T02:43:42;1.47;;;1.40;;
13483;SDS011;6814;57.786;12.080;2022-07-23T02:46:09;1.40;;;1.40;;
13483;SDS011;6814;57.786;12.080;2022-07-23T02:48:36;1.67;;;1.57;;
13483;SDS011;6814;57.786;12.080;2022-07-23T02:51:03;1.47;;;1.37;;
13483;SDS011;6814;57.786;12.080;2022-07-23T02:53:29;2.27;;;1.70;;
13483;SDS011;6814;57.786;12.080;2022-07-23T02:55:56;1.67;;;1.57;;
13483;SDS011;6814;57.786;12.080;2022-07-23T02:58:22;1.97;;;1.43;;
13483;SDS011;6814;57.786;12.080;2022-07-23T03:00:50;1.70;;;1.60;;
13483;SDS011;6814;57.786;12.080;2022-07-23T03:03:16;1.90;;;1.63;;
13483;SDS011;6814;57.786;12.080;2022-07-23T03:05:44;1.70;;;1.60;;
13483;SDS011;6814;57.786;12.080;2022-07-23T03:08:10;1.67;;;1.57;;
13483;SDS011;6814;57.786;12.080;2022-07-23T03:10:37;1.60;;;1.50;;
13483;SDS011;6814;57.786;12.080;2022-07-23T03:13:03;1.57;;;1.47;;
13483;SDS011;6814;57.786;12.080;2022-07-23T03:15:29;1.70;;;1.53;;
13483;SDS011;6814;57.786;12.080;2022-07-23T03:17:56;1.50;;;1.40;;
13483;SDS011;6814;57.786;12.080;2022-07-23T03:20:22;1.37;;;1.37;;
13483;SDS011;6814;57.786;12.080;2022-07-23T03:22:50;1.90;;;1.80;;
13483;SDS011;6814;57.786;12.080;2022-07-23T03:25:16;1.37;;;1.30;;
13483;SDS011;6814;57.786;12.080;2022-07-23T03:27:43;1.40;;;1.40;;
13483;SDS011;6814;57.786;12.080;2022-07-23T03:30:10;1.70;;;1.60;;
13483;SDS011;6814;57.786;12.080;2022-07-23T03:32:37;1.60;;;1.50;;
13483;SDS011;6814;57.786;12.080;2022-07-23T03:35:04;1.60;;;1.50;;
13483;SDS011;6814;57.786;12.080;2022-07-23T03:37:30;1.50;;;1.40;;
13483;SDS011;6814;57.786;12.080;2022-07-23T03:39:58;1.70;;;1.60;;
13483;SDS011;6814;57.786;12.080;2022-07-23T03:42:25;1.40;;;1.40;;
13483;SDS011;6814;57.786;12.080;2022-07-23T03:44:51;1.60;;;1.50;;
13483;SDS011;6814;57.786;12.080;2022-07-23T03:47:17;1.27;;;1.17;;
13483;SDS011;6814;57.786;12.080;2022-07-23T03:49:46;1.37;;;1.37;;
13483;SDS011;6814;57.786;12.080;2022-07-23T03:52:13;1.10;;;1.10;;
13483;SDS011;6814;57.786;12.080;2022-07-23T03:54:40;1.37;;;1.30;;
13483;SDS011;6814;57.786;12.080;2022-07-23T03:57:08;3.00;;;1.40;;
13483;SDS011;6814;57.786;12.080;2022-07-23T03:59:34;1.40;;;1.30;;
13483;SDS011;6814;57.786;12.080;2022-07-23T04:02:00;1.30;;;1.30;;
13483;SDS011;6814;57.786;12.080;2022-07-23T04:04:27;1.50;;;1.33;;
13483;SDS011;6814;57.786;12.080;2022-07-23T04:06:53;1.37;;;1.20;;
13483;SDS011;6814;57.786;12.080;2022-07-23T04:09:20;1.10;;;1.10;;
13483;SDS011;6814;57.786;12.080;2022-07-23T04:11:46;1.53;;;1.43;;
13483;SDS011;6814;57.786;12.080;2022-07-23T04:14:14;1.23;;;1.23;;
13483;SDS011;6814;57.786;12.080;2022-07-23T04:16:40;1.20;;;1.20;;
13483;SDS011;6814;57.786;12.080;2022-07-23T04:19:06;1.33;;;1.23;;
13483;SDS011;6814;57.786;12.080;2022-07-23T04:21:33;1.50;;;1.40;;
13483;SDS011;6814;57.786;12.080;2022-07-23T04:23:59;1.30;;;1.30;;
13483;SDS011;6814;57.786;12.080;2022-07-23T04:26:26;1.70;;;1.17;;
13483;SDS011;6814;57.786;12.080;2022-07-23T04:28:52;1.40;;;1.30;;
13483;SDS011;6814;57.786;12.080;2022-07-23T04:31:20;1.27;;;1.20;;
13483;SDS011;6814;57.786;12.080;2022-07-23T04:33:46;1.67;;;1.10;;
13483;SDS011;6814;57.786;12.080;2022-07-23T04:36:13;1.27;;;1.23;;
13483;SDS011;6814;57.786;12.080;2022-07-23T04:38:39;1.30;;;1.20;;
13483;SDS011;6814;57.786;12.080;2022-07-23T04:41:06;1.00;;;1.00;;
13483;SDS011;6814;57.786;12.080;2022-07-23T04:43:32;1.80;;;1.00;;
13483;SDS011;6814;57.786;12.080;2022-07-23T04:45:58;0.90;;;0.90;;
13483;SDS011;6814;57.786;12.080;2022-07-23T04:48:26;0.90;;;0.90;;
13483;SDS011;6814;57.786;12.080;2022-07-23T04:50:53;1.80;;;0.90;;
13483;SDS011;6814;57.786;12.080;2022-07-23T04:53:19;0.83;;;0.83;;
13483;SDS011;6814;57.786;12.080;2022-07-23T04:55:45;1.40;;;0.90;;
13483;SDS011;6814;57.786;12.080;2022-07-23T04:58:12;1.00;;;0.90;;
13483;SDS011;6814;57.786;12.080;2022-07-23T05:00:38;0.70;;;0.70;;
13483;SDS011;6814;57.786;12.080;2022-07-23T05:03:05;1.17;;;0.73;;
13483;SDS011;6814;57.786;12.080;2022-07-23T05:05:32;0.57;;;0.57;;
13483;SDS011;6814;57.786;12.080;2022-07-23T05:07:59;0.83;;;0.80;;
13483;SDS011;6814;57.786;12.080;2022-07-23T05:10:25;0.83;;;0.80;;
13483;SDS011;6814;57.786;12.080;2022-07-23T05:12:51;0.83;;;0.83;;
13483;SDS011;6814;57.786;12.080;2022-07-23T05:15:18;2.07;;;0.77;;
13483;SDS011;6814;57.786;12.080;2022-07-23T05:17:44;0.87;;;0.87;;
13483;SDS011;6814;57.786;12.080;2022-07-23T05:20:11;2.90;;;0.87;;
13483;SDS011;6814;57.786;12.080;2022-07-23T05:22:39;0.90;;;0.90;;
13483;SDS011;6814;57.786;12.080;2022-07-23T05:25:06;1.03;;;0.80;;
13483;SDS011;6814;57.786;12.080;2022-07-23T05:27:33;0.97;;;0.87;;
13483;SDS011;6814;57.786;12.080;2022-07-23T05:29:59;1.17;;;1.00;;
13483;SDS011;6814;57.786;12.080;2022-07-23T05:32:25;0.70;;;0.70;;
13483;SDS011;6814;57.786;12.080;2022-07-23T05:34:52;1.20;;;0.80;;
13483;SDS011;6814;57.786;12.080;2022-07-23T05:37:18;0.80;;;0.80;;
13483;SDS011;6814;57.786;12.080;2022-07-23T05:39:46;0.70;;;0.70;;
13483;SDS011;6814;57.786;12.080;2022-07-23T05:42:12;0.97;;;0.70;;
13483;SDS011;6814;57.786;12.080;2022-07-23T05:44:39;0.70;;;0.70;;
13483;SDS011;6814;57.786;12.080;2022-07-23T05:47:05;1.80;;;0.93;;
13483;SDS011;6814;57.786;12.080;2022-07-23T05:49:31;1.30;;;0.67;;
13483;SDS011;6814;57.786;12.080;2022-07-23T05:51:58;1.13;;;0.50;;
13483;SDS011;6814;57.786;12.080;2022-07-23T05:54:24;0.50;;;0.50;;
13483;SDS011;6814;57.786;12.080;2022-07-23T05:56:52;0.40;;;0.40;;
13483;SDS011;6814;57.786;12.080;2022-07-23T05:59:19;1.03;;;0.50;;
13483;SDS011;6814;57.786;12.080;2022-07-23T06:01:45;1.80;;;0.50;;
13483;SDS011;6814;57.786;12.080;2022-07-23T06:04:12;0.73;;;0.40;;
13483;SDS011;6814;57.786;12.080;2022-07-23T06:06:38;0.40;;;0.40;;
13483;SDS011;6814;57.786;12.080;2022-07-23T06:09:04;0.83;;;0.50;;
13483;SDS011;6814;57.786;12.080;2022-07-23T06:11:31;0.80;;;0.57;;
13483;SDS011;6814;57.786;12.080;2022-07-23T06:13:59;1.03;;;0.57;;
13483;SDS011;6814;57.786;12.080;2022-07-23T06:16:25;0.60;;;0.60;;
13483;SDS011;6814;57.786;12.080;2022-07-23T06:18:52;1.30;;;0.70;;
13483;SDS011;6814;57.786;12.080;2022-07-23T06:21:18;0.60;;;0.60;;
13483;SDS011;6814;57.786;12.080;2022-07-23T06:23:45;1.03;;;0.87;;
13483;SDS011;6814;57.786;12.080;2022-07-23T06:26:11;1.20;;;0.70;;
13483;SDS011;6814;57.786;12.080;2022-07-23T06:28:37;0.70;;;0.70;;
13483;SDS011;6814;57.786;12.080;2022-07-23T06:31:05;1.07;;;0.80;;
13483;SDS011;6814;57.786;12.080;2022-07-23T06:33:32;0.77;;;0.67;;
13483;SDS011;6814;57.786;12.080;2022-07-23T06:35:59;0.67;;;0.67;;
13483;SDS011;6814;57.786;12.080;2022-07-23T06:38:25;1.07;;;0.80;;
13483;SDS011;6814;57.786;12.080;2022-07-23T06:40:52;2.20;;;0.83;;
13483;SDS011;6814;57.786;12.080;2022-07-23T06:43:18;0.70;;;0.70;;
13483;SDS011;6814;57.786;12.080;2022-07-23T06:45:45;0.57;;;0.57;;
13483;SDS011;6814;57.786;12.080;2022-07-23T06:48:12;0.97;;;0.80;;
13483;SDS011;6814;57.786;12.080;2022-07-23T06:50:39;1.00;;;0.70;;
13483;SDS011;6814;57.786;12.080;2022-07-23T06:53:05;0.83;;;0.83;;
13483;SDS011;6814;57.786;12.080;2022-07-23T06:55:31;1.17;;;1.03;;
13483;SDS011;6814;57.786;12.080;2022-07-23T06:58:00;0.93;;;0.90;;
13483;SDS011;6814;57.786;12.080;2022-07-23T07:00:27;2.63;;;0.80;;
13483;SDS011;6814;57.786;12.080;2022-07-23T07:02:53;1.17;;;1.00;;
13483;SDS011;6814;57.786;12.080;2022-07-23T07:05:21;0.60;;;0.50;;
13483;SDS011;6814;57.786;12.080;2022-07-23T07:07:48;0.73;;;0.73;;
13483;SDS011;6814;57.786;12.080;2022-07-23T07:10:14;0.77;;;0.70;;
13483;SDS011;6814;57.786;12.080;2022-07-23T07:12:42;0.50;;;0.50;;
13483;SDS011;6814;57.786;12.080;2022-07-23T07:15:09;1.40;;;0.60;;
13483;SDS011;6814;57.786;12.080;2022-07-23T07:17:35;0.57;;;0.50;;
13483;SDS011;6814;57.786;12.080;2022-07-23T07:20:02;0.60;;;0.60;;
13483;SDS011;6814;57.786;12.080;2022-07-23T07:22:30;0.70;;;0.70;;
13483;SDS011;6814;57.786;12.080;2022-07-23T07:24:56;0.80;;;0.70;;
13483;SDS011;6814;57.786;12.080;2022-07-23T07:27:23;1.07;;;0.40;;
13483;SDS011;6814;57.786;12.080;2022-07-23T07:29:49;0.57;;;0.57;;
13483;SDS011;6814;57.786;12.080;2022-07-23T07:32:16;0.60;;;0.60;;
13483;SDS011;6814;57.786;12.080;2022-07-23T07:34:42;0.70;;;0.70;;
13483;SDS011;6814;57.786;12.080;2022-07-23T07:37:08;1.00;;;0.30;;
13483;SDS011;6814;57.786;12.080;2022-07-23T07:39:36;0.83;;;0.60;;
13483;SDS011;6814;57.786;12.080;2022-07-23T07:42:03;1.07;;;0.63;;
13483;SDS011;6814;57.786;12.080;2022-07-23T07:44:29;1.30;;;0.70;;
13483;SDS011;6814;57.786;12.080;2022-07-23T07:46:55;0.33;;;0.33;;
13483;SDS011;6814;57.786;12.080;2022-07-23T07:49:22;2.07;;;0.50;;
13483;SDS011;6814;57.786;12.080;2022-07-23T07:51:48;0.60;;;0.60;;
13483;SDS011;6814;57.786;12.080;2022-07-23T07:54:15;0.47;;;0.47;;
13483;SDS011;6814;57.786;12.080;2022-07-23T07:56:43;0.70;;;0.70;;
13483;SDS011;6814;57.786;12.080;2022-07-23T07:59:09;0.40;;;0.40;;
13483;SDS011;6814;57.786;12.080;2022-07-23T08:01:36;2.50;;;0.50;;
13483;SDS011;6814;57.786;12.080;2022-07-23T08:04:02;2.43;;;0.70;;
13483;SDS011;6814;57.786;12.080;2022-07-23T08:06:29;0.70;;;0.67;;
13483;SDS011;6814;57.786;12.080;2022-07-23T08:08:55;0.77;;;0.70;;
13483;SDS011;6814;57.786;12.080;2022-07-23T08:11:21;0.90;;;0.60;;
13483;SDS011;6814;57.786;12.080;2022-07-23T08:13:49;0.67;;;0.60;;
13483;SDS011;6814;57.786;12.080;2022-07-23T08:16:16;0.60;;;0.60;;
13483;SDS011;6814;57.786;12.080;2022-07-23T08:18:42;0.60;;;0.60;;
13483;SDS011;6814;57.786;12.080;2022-07-23T08:21:08;0.60;;;0.60;;
13483;SDS011;6814;57.786;12.080;2022-07-23T08:23:35;0.70;;;0.53;;
13483;SDS011;6814;57.786;12.080;2022-07-23T08:26:01;1.23;;;0.70;;
13483;SDS011;6814;57.786;12.080;2022-07-23T08:28:28;1.83;;;0.80;;
13483;SDS011;6814;57.786;12.080;2022-07-23T08:30:55;0.63;;;0.63;;
13483;SDS011;6814;57.786;12.080;2022-07-23T08:33:22;0.97;;;0.83;;
13483;SDS011;6814;57.786;12.080;2022-07-23T08:35:49;1.40;;;0.87;;
13483;SDS011;6814;57.786;12.080;2022-07-23T08:38:16;1.27;;;0.70;;
13483;SDS011;6814;57.786;12.080;2022-07-23T08:40:43;0.70;;;0.70;;
13483;SDS011;6814;57.786;12.080;2022-07-23T08:43:11;1.17;;;0.87;;
13483;SDS011;6814;57.786;12.080;2022-07-23T08:45:38;1.30;;;0.90;;
13483;SDS011;6814;57.786;12.080;2022-07-23T08:48:07;1.00;;;0.60;;
13483;SDS011;6814;57.786;12.080;2022-07-23T08:50:34;0.63;;;0.50;;
13483;SDS011;6814;57.786;12.080;2022-07-23T08:53:02;0.93;;;0.60;;
13483;SDS011;6814;57.786;12.080;2022-07-23T08:55:30;0.90;;;0.87;;
13483;SDS011;6814;57.786;12.080;2022-07-23T08:57:57;0.53;;;0.53;;
13483;SDS011;6814;57.786;12.080;2022-07-23T09:00:23;0.60;;;0.60;;
13483;SDS011;6814;57.786;12.080;2022-07-23T09:02:49;0.83;;;0.30;;
13483;SDS011;6814;57.786;12.080;2022-07-23T09:05:18;0.30;;;0.30;;
13483;SDS011;6814;57.786;12.080;2022-07-23T09:08:04;0.77;;;0.40;;
13483;SDS011;6814;57.786;12.080;2022-07-23T09:10:30;0.70;;;0.40;;
13483;SDS011;6814;57.786;12.080;2022-07-23T09:13:10;0.40;;;0.30;;
13483;SDS011;6814;57.786;12.080;2022-07-23T09:15:49;1.23;;;1.13;;
13483;SDS011;6814;57.786;12.080;2022-07-23T09:18:15;1.53;;;1.10;;
13483;SDS011;6814;57.786;12.080;2022-07-23T09:20:44;2.33;;;1.73;;
13483;SDS011;6814;57.786;12.080;2022-07-23T09:23:10;2.97;;;2.07;;
13483;SDS011;6814;57.786;12.080;2022-07-23T09:25:37;2.50;;;1.70;;
13483;SDS011;6814;57.786;12.080;2022-07-23T09:28:03;3.33;;;2.30;;
13483;SDS011;6814;57.786;12.080;2022-07-23T09:30:32;2.47;;;1.80;;
13483;SDS011;6814;57.786;12.080;2022-07-23T09:33:06;2.37;;;1.03;;
13483;SDS011;6814;57.786;12.080;2022-07-23T09:35:47;0.50;;;0.50;;
13483;SDS011;6814;57.786;12.080;2022-07-23T09:38:14;0.40;;;0.40;;
13483;SDS011;6814;57.786;12.080;2022-07-23T09:40:41;0.40;;;0.30;;
13483;SDS011;6814;57.786;12.080;2022-07-23T09:43:07;0.30;;;0.30;;
13483;SDS011;6814;57.786;12.080;2022-07-23T09:45:33;0.30;;;0.30;;
13483;SDS011;6814;57.786;12.080;2022-07-23T09:48:10;0.40;;;0.30;;
13483;SDS011;6814;57.786;12.080;2022-07-23T09:50:37;0.33;;;0.30;;
13483;SDS011;6814;57.786;12.080;2022-07-23T09:53:05;0.27;;;0.27;;
13483;SDS011;6814;57.786;12.080;2022-07-23T09:55:32;0.30;;;0.30;;
13483;SDS011;6814;57.786;12.080;2022-07-23T09:58:01;1.13;;;0.30;;
13483;SDS011;6814;57.786;12.080;2022-07-23T10:00:28;0.30;;;0.30;;
13483;SDS011;6814;57.786;12.080;2022-07-23T10:02:55;1.17;;;0.27;;
13483;SDS011;6814;57.786;12.080;2022-07-23T10:05:23;0.57;;;0.23;;
13483;SDS011;6814;57.786;12.080;2022-07-23T10:07:50;0.30;;;0.30;;
13483;SDS011;6814;57.786;12.080;2022-07-23T10:10:18;0.50;;;0.50;;
13483;SDS011;6814;57.786;12.080;2022-07-23T10:12:46;0.50;;;0.30;;
13483;SDS011;6814;57.786;12.080;2022-07-23T10:15:30;0.30;;;0.30;;
13483;SDS011;6814;57.786;12.080;2022-07-23T10:17:56;0.87;;;0.33;;
13483;SDS011;6814;57.786;12.080;2022-07-23T10:20:23;0.57;;;0.40;;
13483;SDS011;6814;57.786;12.080;2022-07-23T10:22:51;0.30;;;0.20;;
13483;SDS011;6814;57.786;12.080;2022-07-23T10:25:24;0.20;;;0.20;;
13483;SDS011;6814;57.786;12.080;2022-07-23T10:28:02;0.30;;;0.30;;
13483;SDS011;6814;57.786;12.080;2022-07-23T10:30:31;1.03;;;0.23;;
13483;SDS011;6814;57.786;12.080;2022-07-23T10:33:09;0.37;;;0.37;;
13483;SDS011;6814;57.786;12.080;2022-07-23T10:35:39;0.40;;;0.40;;
13483;SDS011;6814;57.786;12.080;2022-07-23T10:38:11;2.20;;;0.40;;
13483;SDS011;6814;57.786;12.080;2022-07-23T10:40:50;0.20;;;0.20;;
13483;SDS011;6814;57.786;12.080;2022-07-23T10:43:19;0.93;;;0.37;;
13483;SDS011;6814;57.786;12.080;2022-07-23T10:45:45;0.40;;;0.40;;
13483;SDS011;6814;57.786;12.080;2022-07-23T10:48:13;0.33;;;0.33;;
13483;SDS011;6814;57.786;12.080;2022-07-23T10:50:40;0.50;;;0.40;;
13483;SDS011;6814;57.786;12.080;2022-07-23T10:53:10;0.30;;;0.30;;
13483;SDS011;6814;57.786;12.080;2022-07-23T10:55:45;1.40;;;0.40;;
13483;SDS011;6814;57.786;12.080;2022-07-23T10:58:16;1.37;;;0.50;;
13483;SDS011;6814;57.786;12.080;2022-07-23T11:00:44;1.07;;;0.43;;
13483;SDS011;6814;57.786;12.080;2022-07-23T11:05:52;0.40;;;0.40;;
13483;SDS011;6814;57.786;12.080;2022-07-23T11:08:18;0.40;;;0.40;;
13483;SDS011;6814;57.786;12.080;2022-07-23T11:10:47;0.50;;;0.50;;
13483;SDS011;6814;57.786;12.080;2022-07-23T11:13:28;0.40;;;0.40;;
13483;SDS011;6814;57.786;12.080;2022-07-23T11:16:04;0.50;;;0.50;;
13483;SDS011;6814;57.786;12.080;2022-07-23T11:24:03;0.70;;;0.70;;
13483;SDS011;6814;57.786;12.080;2022-07-23T11:26:42;0.83;;;0.60;;
13483;SDS011;6814;57.786;12.080;2022-07-23T11:31:52;1.03;;;0.70;;
13483;SDS011;6814;57.786;12.080;2022-07-23T11:34:26;1.13;;;1.03;;
13483;SDS011;6814;57.786;12.080;2022-07-23T11:36:54;0.70;;;0.70;;
13483;SDS011;6814;57.786;12.080;2022-07-23T11:39:20;0.60;;;0.60;;
13483;SDS011;6814;57.786;12.080;2022-07-23T11:41:47;0.70;;;0.70;;
13483;SDS011;6814;57.786;12.080;2022-07-23T11:44:23;0.77;;;0.77;;
13483;SDS011;6814;57.786;12.080;2022-07-23T11:46:55;0.63;;;0.63;;
13483;SDS011;6814;57.786;12.080;2022-07-23T11:49:22;0.90;;;0.90;;
13483;SDS011;6814;57.786;12.080;2022-07-23T11:52:01;2.00;;;0.93;;
13483;SDS011;6814;57.786;12.080;2022-07-23T11:54:28;0.80;;;0.80;;
13483;SDS011;6814;57.786;12.080;2022-07-23T11:56:55;0.90;;;0.90;;
13483;SDS011;6814;57.786;12.080;2022-07-23T11:59:22;0.60;;;0.60;;
13483;SDS011;6814;57.786;12.080;2022-07-23T12:01:57;0.70;;;0.70;;
13483;SDS011;6814;57.786;12.080;2022-07-23T12:04:24;0.83;;;0.83;;
13483;SDS011;6814;57.786;12.080;2022-07-23T12:06:51;0.60;;;0.60;;
13483;SDS011;6814;57.786;12.080;2022-07-23T12:09:17;0.77;;;0.73;;
13483;SDS011;6814;57.786;12.080;2022-07-23T12:11:56;1.63;;;1.00;;
13483;SDS011;6814;57.786;12.080;2022-07-23T12:14:22;0.80;;;0.80;;
13483;SDS011;6814;57.786;12.080;2022-07-23T12:19:31;0.80;;;0.80;;
13483;SDS011;6814;57.786;12.080;2022-07-23T12:21:58;1.00;;;0.83;;
13483;SDS011;6814;57.786;12.080;2022-07-23T12:24:24;0.80;;;0.80;;
13483;SDS011;6814;57.786;12.080;2022-07-23T12:29:33;0.80;;;0.80;;
13483;SDS011;6814;57.786;12.080;2022-07-23T12:32:00;0.73;;;0.73;;
13483;SDS011;6814;57.786;12.080;2022-07-23T12:34:26;0.77;;;0.77;;
13483;SDS011;6814;57.786;12.080;2022-07-23T12:36:54;0.90;;;0.90;;
13483;SDS011;6814;57.786;12.080;2022-07-23T12:39:29;0.80;;;0.80;;
13483;SDS011;6814;57.786;12.080;2022-07-23T12:41:55;0.93;;;0.90;;
13483;SDS011;6814;57.786;12.080;2022-07-23T12:44:22;0.70;;;0.70;;
13483;SDS011;6814;57.786;12.080;2022-07-23T12:46:49;0.90;;;0.90;;
13483;SDS011;6814;57.786;12.080;2022-07-23T12:49:24;0.70;;;0.70;;
13483;SDS011;6814;57.786;12.080;2022-07-23T12:51:51;1.83;;;0.90;;
13483;SDS011;6814;57.786;12.080;2022-07-23T12:54:19;1.47;;;1.10;;
13483;SDS011;6814;57.786;12.080;2022-07-23T12:56:52;0.80;;;0.80;;
13483;SDS011;6814;57.786;12.080;2022-07-23T12:59:19;1.00;;;0.90;;
13483;SDS011;6814;57.786;12.080;2022-07-23T13:01:46;0.63;;;0.63;;
13483;SDS011;6814;57.786;12.080;2022-07-23T13:04:20;1.27;;;1.07;;
13483;SDS011;6814;57.786;12.080;2022-07-23T13:06:47;1.57;;;0.90;;
13483;SDS011;6814;57.786;12.080;2022-07-23T13:09:14;0.93;;;0.90;;
13483;SDS011;6814;57.786;12.080;2022-07-23T13:11:42;1.13;;;1.10;;
13483;SDS011;6814;57.786;12.080;2022-07-23T13:14:10;1.00;;;1.00;;
13483;SDS011;6814;57.786;12.080;2022-07-23T13:16:37;1.20;;;1.07;;
13483;SDS011;6814;57.786;12.080;2022-07-23T13:19:04;0.80;;;0.80;;
13483;SDS011;6814;57.786;12.080;2022-07-23T13:21:31;1.83;;;1.17;;
13483;SDS011;6814;57.786;12.080;2022-07-23T13:23:57;1.20;;;1.10;;
13483;SDS011;6814;57.786;12.080;2022-07-23T13:26:24;1.00;;;1.00;;
13483;SDS011;6814;57.786;12.080;2022-07-23T13:28:52;1.03;;;1.00;;
13483;SDS011;6814;57.786;12.080;2022-07-23T13:31:18;1.30;;;1.10;;
13483;SDS011;6814;57.786;12.080;2022-07-23T13:33:45;0.80;;;0.80;;
13483;SDS011;6814;57.786;12.080;2022-07-23T13:36:11;1.10;;;1.10;;
13483;SDS011;6814;57.786;12.080;2022-07-23T13:38:38;1.27;;;1.20;;
13483;SDS011;6814;57.786;12.080;2022-07-23T13:41:05;1.03;;;0.90;;
13483;SDS011;6814;57.786;12.080;2022-07-23T13:43:31;1.40;;;1.30;;
13483;SDS011;6814;57.786;12.080;2022-07-23T13:45:59;1.10;;;1.10;;
13483;SDS011;6814;57.786;12.080;2022-07-23T13:48:26;1.13;;;1.03;;
13483;SDS011;6814;57.786;12.080;2022-07-23T13:50:54;1.70;;;1.10;;
13483;SDS011;6814;57.786;12.080;2022-07-23T13:53:20;1.13;;;1.10;;
13483;SDS011;6814;57.786;12.080;2022-07-23T13:55:48;0.90;;;0.90;;
13483;SDS011;6814;57.786;12.080;2022-07-23T13:58:15;1.27;;;1.10;;
13483;SDS011;6814;57.786;12.080;2022-07-23T14:00:42;1.13;;;1.13;;
13483;SDS011;6814;57.786;12.080;2022-07-23T14:03:10;1.47;;;1.10;;
13483;SDS011;6814;57.786;12.080;2022-07-23T14:05:36;0.90;;;0.90;;
13483;SDS011;6814;57.786;12.080;2022-07-23T14:08:03;1.17;;;1.17;;
13483;SDS011;6814;57.786;12.080;2022-07-23T14:10:29;1.07;;;1.07;;
13483;SDS011;6814;57.786;12.080;2022-07-23T14:12:56;1.00;;;1.00;;
13483;SDS011;6814;57.786;12.080;2022-07-23T14:15:24;1.00;;;1.00;;
13483;SDS011;6814;57.786;12.080;2022-07-23T14:17:51;0.83;;;0.83;;
13483;SDS011;6814;57.786;12.080;2022-07-23T14:20:20;1.37;;;1.27;;
13483;SDS011;6814;57.786;12.080;2022-07-23T14:22:46;1.10;;;1.10;;
13483;SDS011;6814;57.786;12.080;2022-07-23T14:25:14;1.70;;;1.10;;
13483;SDS011;6814;57.786;12.080;2022-07-23T14:27:40;1.10;;;1.07;;
13483;SDS011;6814;57.786;12.080;2022-07-23T14:30:08;0.90;;;0.90;;
13483;SDS011;6814;57.786;12.080;2022-07-23T14:32:35;1.37;;;1.27;;
13483;SDS011;6814;57.786;12.080;2022-07-23T14:35:01;1.20;;;1.10;;
13483;SDS011;6814;57.786;12.080;2022-07-23T14:37:29;0.90;;;0.90;;
13483;SDS011;6814;57.786;12.080;2022-07-23T14:39:56;1.37;;;0.97;;
13483;SDS011;6814;57.786;12.080;2022-07-23T14:42:22;1.70;;;1.00;;
13483;SDS011;6814;57.786;12.080;2022-07-23T14:44:48;3.07;;;1.10;;
13483;SDS011;6814;57.786;12.080;2022-07-23T14:47:15;0.93;;;0.93;;
13483;SDS011;6814;57.786;12.080;2022-07-23T14:49:41;1.07;;;0.90;;
13483;SDS011;6814;57.786;12.080;2022-07-23T14:52:08;1.20;;;1.20;;
13483;SDS011;6814;57.786;12.080;2022-07-23T14:54:36;0.90;;;0.90;;
13483;SDS011;6814;57.786;12.080;2022-07-23T14:57:02;1.43;;;0.80;;
13483;SDS011;6814;57.786;12.080;2022-07-23T14:59:29;1.43;;;1.30;;
13483;SDS011;6814;57.786;12.080;2022-07-23T15:01:56;0.70;;;0.70;;
13483;SDS011;6814;57.786;12.080;2022-07-23T15:04:23;1.00;;;1.00;;
13483;SDS011;6814;57.786;12.080;2022-07-23T15:06:49;0.90;;;0.90;;